createdAt,value
2023-02-02T00:01:36.072Z,4.33
2023-02-02T00:04:38.427Z,4.37
2023-02-02T00:07:40.780Z,4.38
2023-02-02T00:10:43.963Z,4.36
2023-02-02T00:13:46.924Z,4.34
2023-02-02T00:16:51.434Z,4.48
2023-02-02T00:19:53.884Z,4.42
2023-02-02T00:22:59.251Z,4.51
2023-02-02T00:26:01.671Z,4.56
2023-02-02T00:29:05.372Z,4.47
2023-02-02T00:32:09.776Z,4.49
2023-02-02T00:35:12.135Z,4.46
2023-02-02T00:38:14.512Z,4.45
2023-02-02T00:41:17.593Z,4.52
2023-02-02T00:44:38.438Z,4.44
2023-02-02T00:47:40.703Z,4.42
2023-02-02T00:50:42.857Z,4.44
2023-02-02T00:53:45.233Z,4.55
2023-02-02T00:56:47.574Z,4.69
2023-02-02T00:59:49.736Z,4.66
2023-02-02T01:02:54.129Z,4.74
2023-02-02T01:05:56.283Z,4.73
2023-02-02T01:08:58.859Z,4.67
2023-02-02T01:12:01.137Z,4.62
2023-02-02T01:15:03.794Z,4.59
2023-02-02T01:18:05.906Z,4.54
2023-02-02T01:21:10.226Z,4.46
2023-02-02T01:24:12.383Z,4.39
2023-02-02T01:27:14.743Z,4.28
2023-02-02T01:30:17.214Z,4.27
2023-02-02T01:33:19.952Z,4.29
2023-02-02T01:36:23.921Z,4.23
2023-02-02T01:39:26.624Z,4.26
2023-02-02T01:42:29.316Z,4.20
2023-02-02T01:45:31.620Z,4.18
2023-02-02T01:48:36.100Z,4.25
2023-02-02T01:51:52.559Z,4.25
2023-02-02T01:55:00.322Z,4.26
2023-02-02T01:58:05.542Z,4.35
2023-02-02T02:01:08.395Z,4.36
2023-02-02T02:04:12.104Z,4.39
2023-02-02T02:07:14.132Z,4.35
2023-02-02T02:10:18.566Z,4.40
2023-02-02T02:13:25.743Z,4.47
2023-02-02T02:16:42.958Z,4.52
2023-02-02T02:20:37.249Z,4.47
2023-02-02T02:24:39.917Z,4.31
2023-02-02T02:28:09.498Z,4.27
2023-02-02T02:31:33.458Z,4.18
2023-02-02T02:35:17.169Z,4.17
2023-02-02T02:38:26.871Z,4.17
2023-02-02T02:41:36.576Z,4.14
2023-02-02T02:44:39.462Z,4.14
2023-02-02T02:47:42.666Z,4.05
2023-02-02T02:50:44.826Z,3.97
2023-02-02T02:53:47.009Z,3.93
2023-02-02T02:57:10.822Z,3.89
2023-02-02T03:00:32.969Z,3.86
2023-02-02T03:03:59.915Z,3.79
2023-02-02T03:07:07.848Z,3.71
2023-02-02T03:10:13.379Z,3.75
2023-02-02T03:13:16.993Z,3.76
2023-02-02T03:16:19.149Z,3.79
2023-02-02T03:19:22.076Z,3.73
2023-02-02T03:22:24.946Z,3.72
2023-02-02T03:25:27.650Z,3.68
2023-02-02T03:28:30.518Z,3.62
2023-02-02T03:31:32.854Z,3.63
2023-02-02T03:34:35.239Z,3.61
2023-02-02T03:37:37.658Z,3.64
2023-02-02T03:40:40.505Z,3.53
2023-02-02T03:43:42.415Z,3.53
2023-02-02T03:46:44.743Z,3.49
2023-02-02T03:49:46.821Z,3.46
2023-02-02T03:52:48.773Z,3.38
2023-02-02T03:55:50.962Z,3.34
2023-02-02T03:58:53.194Z,3.32
2023-02-02T04:01:55.273Z,3.33
2023-02-02T04:04:57.594Z,3.31
2023-02-02T04:07:59.942Z,3.30
2023-02-02T04:11:02.626Z,3.24
2023-02-02T04:14:04.675Z,3.22
2023-02-02T04:17:06.766Z,3.19
2023-02-02T04:20:09.447Z,3.19
2023-02-02T04:23:11.632Z,3.16
2023-02-02T04:26:14.109Z,3.18
2023-02-02T04:29:17.168Z,3.12
2023-02-02T04:32:19.679Z,3.05
2023-02-02T04:35:24.506Z,3.04
2023-02-02T04:38:27.106Z,3.02
2023-02-02T04:41:29.203Z,3.01
2023-02-02T04:44:31.524Z,2.98
2023-02-02T04:47:33.888Z,3.01
2023-02-02T04:50:36.760Z,2.95
2023-02-02T04:53:40.805Z,2.96
2023-02-02T04:56:43.602Z,2.96
2023-02-02T04:59:46.000Z,2.93
2023-02-02T05:02:48.420Z,2.96
2023-02-02T05:05:50.732Z,2.98
2023-02-02T05:08:53.475Z,2.97
2023-02-02T05:11:56.864Z,2.96
2023-02-02T05:15:01.244Z,3.00
2023-02-02T05:18:05.867Z,2.95
2023-02-02T05:21:08.426Z,3.01
2023-02-02T05:24:12.744Z,3.09
2023-02-02T05:27:15.197Z,3.22
2023-02-02T05:30:18.447Z,3.22
2023-02-02T05:33:21.423Z,3.20
2023-02-02T05:36:23.473Z,3.24
2023-02-02T05:39:25.528Z,3.27
2023-02-02T05:42:27.792Z,3.44
2023-02-02T05:45:30.248Z,3.38
2023-02-02T05:48:33.244Z,3.29
2023-02-02T05:51:43.575Z,3.30
2023-02-02T05:54:46.326Z,3.35
2023-02-02T05:57:48.814Z,3.40
2023-02-02T06:00:51.283Z,3.29
2023-02-02T06:03:53.638Z,3.36
2023-02-02T06:06:56.447Z,3.24
2023-02-02T06:09:59.579Z,3.12
2023-02-02T06:13:02.211Z,2.99
2023-02-02T06:16:04.994Z,2.94
2023-02-02T06:19:07.867Z,2.87
2023-02-02T06:22:10.336Z,2.84
2023-02-02T06:25:12.614Z,2.88
2023-02-02T06:28:14.611Z,2.82
2023-02-02T06:35:08.915Z,2.94
2023-02-02T06:38:11.519Z,2.86
2023-02-02T06:41:16.791Z,2.90
2023-02-02T06:44:21.098Z,2.98
2023-02-02T06:47:23.673Z,3.03
2023-02-02T06:50:32.326Z,3.10
2023-02-02T06:53:41.853Z,3.12
2023-02-02T06:56:58.824Z,3.17
2023-02-02T07:00:09.479Z,3.20
2023-02-02T07:03:11.873Z,3.19
2023-02-02T07:06:30.973Z,3.21
2023-02-02T07:10:09.703Z,3.25
2023-02-02T07:13:53.991Z,3.18
2023-02-02T07:16:57.004Z,3.10
2023-02-02T07:23:48.784Z,3.27
2023-02-02T07:30:38.145Z,3.26
2023-02-02T07:33:55.743Z,3.33
2023-02-02T07:41:56.910Z,3.34
2023-02-02T07:45:26.947Z,3.41
2023-02-02T08:03:03.943Z,3.92
2023-02-02T08:06:52.581Z,4.18
2023-02-02T08:21:49.121Z,4.59
2023-02-02T08:26:13.929Z,5.02
2023-02-02T08:49:45.228Z,5.41
2023-02-02T09:01:42.481Z,5.70
2023-02-02T09:09:48.047Z,5.65
2023-02-02T09:13:42.919Z,5.82
2023-02-02T09:17:42.673Z,5.79
2023-02-02T09:21:06.430Z,5.77
2023-02-02T09:29:28.574Z,5.78
2023-02-02T09:32:54.910Z,5.83
2023-02-02T09:36:11.063Z,5.91
2023-02-02T09:53:24.562Z,6.15
2023-02-02T10:06:08.651Z,6.31
2023-02-02T10:13:45.464Z,6.06
2023-02-02T10:25:38.338Z,6.10
2023-02-02T10:29:58.927Z,6.24
2023-02-02T10:34:51.237Z,5.94
2023-02-02T10:38:44.565Z,5.92
2023-02-02T10:42:35.496Z,5.89
2023-02-02T10:46:36.272Z,5.66
2023-02-02T10:50:28.385Z,5.59
2023-02-02T10:53:41.173Z,5.85
2023-02-02T10:56:56.531Z,6.05
2023-02-02T11:36:43.364Z,6.38
2023-02-02T11:53:35.750Z,7.00
2023-02-02T12:00:31.964Z,6.69
2023-02-02T12:03:52.708Z,6.58
2023-02-02T12:12:39.353Z,6.77
2023-02-02T12:25:54.193Z,6.66
2023-02-02T12:29:55.547Z,6.49
2023-02-02T12:43:06.388Z,6.40
2023-02-02T12:46:38.015Z,6.51
2023-02-02T12:50:27.187Z,6.45
2023-02-02T12:54:52.741Z,6.40
2023-02-02T12:58:34.753Z,6.36
2023-02-02T13:02:55.824Z,6.31
2023-02-02T13:06:33.301Z,6.27
2023-02-02T13:13:42.944Z,6.23
2023-02-02T13:17:09.467Z,6.26
2023-02-02T13:20:58.412Z,6.20
2023-02-02T13:24:22.064Z,6.21
2023-02-02T13:27:35.531Z,6.27
2023-02-02T13:31:37.722Z,6.24
2023-02-02T13:35:13.762Z,6.21
2023-02-02T13:38:44.160Z,6.20
2023-02-02T13:41:59.623Z,6.07
2023-02-02T13:45:50.118Z,6.19
2023-02-02T13:49:19.179Z,6.22
2023-02-02T13:52:49.390Z,6.12
2023-02-02T13:56:44.852Z,6.20
2023-02-02T14:00:20.345Z,6.32
2023-02-02T14:03:39.214Z,6.41
2023-02-02T14:14:07.538Z,6.38
2023-02-02T14:17:24.772Z,6.47
2023-02-02T14:21:25.830Z,6.17
2023-02-02T14:24:52.931Z,6.27
2023-02-02T14:28:09.225Z,6.09
2023-02-02T14:31:21.193Z,6.17
2023-02-02T14:34:36.680Z,6.16
2023-02-02T14:37:58.618Z,6.08
2023-02-02T14:41:38.625Z,6.11
2023-02-02T14:45:05.643Z,6.07
2023-02-02T14:48:27.146Z,6.06
2023-02-02T14:51:34.158Z,6.10
2023-02-02T14:54:53.750Z,6.08
2023-02-02T14:58:05.862Z,5.90
2023-02-02T15:01:12.220Z,5.90
2023-02-02T15:04:21.914Z,6.06
2023-02-02T15:07:24.651Z,6.07
2023-02-02T15:10:53.859Z,6.01
2023-02-02T15:14:07.714Z,5.88
2023-02-02T15:17:35.754Z,5.94
2023-02-02T15:20:49.663Z,5.96
2023-02-02T15:23:53.168Z,5.79
2023-02-02T15:27:01.485Z,5.83
2023-02-02T15:30:09.619Z,5.89
2023-02-02T15:33:31.449Z,5.95
2023-02-02T15:36:40.133Z,5.98
2023-02-02T15:39:58.634Z,5.83
2023-02-02T15:43:09.518Z,5.83
2023-02-02T15:46:27.062Z,5.67
2023-02-02T15:49:36.824Z,5.69
2023-02-02T15:52:52.823Z,5.63
2023-02-02T15:55:58.788Z,5.54
2023-02-02T15:59:02.138Z,5.45
2023-02-02T16:02:24.936Z,5.33
2023-02-02T16:05:30.094Z,5.30
2023-02-02T16:08:35.000Z,5.22
2023-02-02T16:11:42.897Z,5.20
2023-02-02T16:14:51.403Z,5.10
2023-02-02T16:18:01.621Z,5.11
2023-02-02T16:21:11.707Z,5.04
2023-02-02T16:24:35.408Z,4.94
2023-02-02T16:27:46.449Z,5.01
2023-02-02T16:30:53.228Z,5.13
2023-02-02T16:33:58.159Z,5.07
2023-02-02T16:37:32.705Z,5.07
2023-02-02T16:40:38.993Z,4.72
2023-02-02T16:43:48.294Z,4.95
2023-02-02T16:46:52.844Z,4.74
2023-02-02T16:50:09.926Z,4.75
2023-02-02T16:53:23.508Z,4.96
2023-02-02T16:56:57.487Z,4.88
2023-02-02T17:00:07.354Z,4.96
2023-02-02T17:03:11.511Z,5.10
2023-02-02T17:06:15.103Z,4.95
2023-02-02T17:09:38.347Z,4.93
2023-02-02T17:12:41.253Z,4.80
2023-02-02T17:15:55.299Z,4.79
2023-02-02T17:19:00.705Z,4.78
2023-02-02T17:22:08.648Z,4.75
2023-02-02T17:25:40.823Z,4.89
2023-02-02T17:28:48.387Z,4.78
2023-02-02T17:31:54.983Z,4.70
2023-02-02T17:34:57.481Z,4.63
2023-02-02T17:38:00.107Z,4.76
2023-02-02T17:41:03.946Z,4.77
2023-02-02T17:44:07.179Z,4.85
2023-02-02T17:47:13.629Z,4.85
2023-02-02T17:50:18.152Z,4.85
2023-02-02T17:53:22.447Z,4.87
2023-02-02T17:56:24.679Z,4.80
2023-02-02T17:59:27.357Z,4.73
2023-02-02T18:02:30.546Z,4.77
2023-02-02T18:05:41.369Z,4.77
2023-02-02T18:08:49.058Z,4.70
2023-02-02T18:11:51.845Z,4.58
2023-02-02T18:14:55.323Z,4.61
2023-02-02T18:18:00.953Z,4.65
2023-02-02T18:21:10.176Z,4.59
2023-02-02T18:24:17.519Z,4.57
2023-02-02T18:27:20.917Z,4.52
2023-02-02T18:30:24.306Z,4.53
2023-02-02T18:33:30.442Z,4.44
2023-02-02T18:36:34.439Z,4.51
2023-02-02T18:39:37.299Z,4.49
2023-02-02T18:42:40.689Z,4.51
2023-02-02T18:45:43.250Z,4.43
2023-02-02T18:48:45.883Z,4.45
2023-02-02T18:51:49.319Z,4.44
2023-02-02T18:54:52.260Z,4.29
2023-02-02T18:57:55.465Z,4.31
2023-02-02T19:00:58.103Z,4.38
2023-02-02T19:04:00.928Z,4.35
2023-02-02T19:07:22.876Z,4.37
2023-02-02T19:10:30.162Z,4.32
2023-02-02T19:13:34.036Z,4.37
2023-02-02T19:16:36.908Z,4.39
2023-02-02T19:19:40.636Z,4.29
2023-02-02T19:22:44.721Z,4.41
2023-02-02T19:25:52.385Z,4.39
2023-02-02T19:29:12.437Z,4.30
2023-02-02T19:32:27.186Z,4.21
2023-02-02T19:35:32.315Z,4.30
2023-02-02T19:38:37.139Z,4.31
2023-02-02T19:41:42.641Z,4.30
2023-02-02T19:44:46.051Z,4.30
2023-02-02T19:47:51.568Z,4.28
2023-02-02T19:50:59.157Z,4.12
2023-02-02T19:54:02.636Z,4.22
2023-02-02T19:57:21.344Z,4.16
2023-02-02T20:00:27.352Z,4.10
2023-02-02T20:03:43.674Z,4.02
2023-02-02T20:06:58.685Z,4.00
2023-02-02T20:10:39.762Z,3.97
2023-02-02T20:13:48.775Z,3.94
2023-02-02T20:16:55.364Z,3.94
2023-02-02T20:19:58.297Z,3.98
2023-02-02T20:23:01.829Z,3.90
2023-02-02T20:26:15.181Z,3.87
2023-02-02T20:29:28.389Z,3.87
2023-02-02T20:32:41.711Z,3.88
2023-02-02T20:35:45.212Z,3.96
2023-02-02T20:38:48.253Z,3.88
2023-02-02T20:41:50.845Z,3.91
2023-02-02T20:44:54.475Z,3.90
2023-02-02T20:47:57.280Z,3.93
2023-02-02T20:50:59.860Z,3.88
2023-02-02T20:54:04.175Z,3.81
2023-02-02T20:57:08.592Z,3.82
2023-02-02T21:00:14.094Z,3.78
2023-02-02T21:03:16.786Z,3.77
2023-02-02T21:06:19.447Z,3.70
2023-02-02T21:09:22.909Z,3.66
2023-02-02T21:12:25.878Z,3.71
2023-02-02T21:15:28.228Z,3.67
2023-02-02T21:18:30.899Z,3.59
2023-02-02T21:21:34.141Z,3.59
2023-02-02T21:24:36.654Z,3.60
2023-02-02T21:27:44.833Z,3.59
2023-02-02T21:30:47.363Z,3.51
2023-02-02T21:33:50.891Z,3.47
2023-02-02T21:36:57.325Z,3.55
2023-02-02T21:40:00.200Z,3.51
2023-02-02T21:43:13.826Z,3.51
2023-02-02T21:46:24.906Z,3.51
2023-02-02T21:49:40.452Z,3.55
2023-02-02T21:52:44.324Z,3.43
2023-02-02T21:55:57.318Z,3.43
2023-02-02T21:59:01.235Z,3.39
2023-02-02T22:02:39.246Z,3.41
2023-02-02T22:05:41.694Z,3.33
2023-02-02T22:08:47.796Z,3.32
2023-02-02T22:12:01.721Z,3.28
2023-02-02T22:15:18.960Z,3.36
2023-02-02T22:18:24.746Z,3.35
2023-02-02T22:21:27.509Z,3.34
2023-02-02T22:24:31.602Z,3.32
2023-02-02T22:27:41.913Z,3.26
2023-02-02T22:30:44.392Z,3.33
2023-02-02T22:33:46.566Z,3.45
2023-02-02T22:36:48.817Z,3.32
2023-02-02T22:39:51.179Z,3.31
2023-02-02T22:42:58.074Z,3.38
2023-02-02T22:46:00.660Z,3.39
2023-02-02T22:49:03.419Z,3.27
2023-02-02T22:52:05.567Z,3.31
2023-02-02T22:55:08.504Z,3.25
2023-02-02T22:58:10.864Z,3.24
2023-02-02T23:01:15.995Z,3.24
2023-02-02T23:04:20.014Z,3.23
2023-02-02T23:07:22.237Z,3.19
2023-02-02T23:10:28.119Z,3.16
2023-02-02T23:13:30.629Z,3.11
2023-02-02T23:16:33.198Z,3.14
2023-02-02T23:19:36.918Z,3.02
2023-02-02T23:22:39.149Z,3.02
2023-02-02T23:25:41.406Z,3.06
2023-02-02T23:28:43.908Z,3.02
2023-02-02T23:31:50.303Z,2.89
2023-02-02T23:34:53.684Z,2.88
2023-02-02T23:37:56.291Z,2.86
2023-02-02T23:41:00.738Z,2.89
2023-02-02T23:44:03.137Z,2.93
2023-02-02T23:47:07.365Z,2.85
2023-02-02T23:50:11.802Z,2.82
2023-02-02T23:53:15.631Z,2.77
2023-02-02T23:56:18.935Z,2.78
2023-02-02T23:59:24.612Z,2.85
